sensor_id;sensor_type;location;lat;lon;timestamp;temperature;humidity
18712;DHT22;9485;49.386;8.674;2023-12-29T00:04:59;13.60;99.90
18712;DHT22;9485;49.386;8.674;2023-12-29T00:10:20;13.30;99.90
18712;DHT22;9485;49.386;8.674;2023-12-29T00:15:41;13.20;99.90
18712;DHT22;9485;49.386;8.674;2023-12-29T00:21:01;13.20;99.90
18712;DHT22;9485;49.386;8.674;2023-12-29T00:26:23;13.20;99.90
18712;DHT22;9485;49.386;8.674;2023-12-29T00:31:50;13.10;99.90
18712;DHT22;9485;49.386;8.674;2023-12-29T00:37:10;13.10;99.90
18712;DHT22;9485;49.386;8.674;2023-12-29T00:42:32;13.10;99.90
18712;DHT22;9485;49.386;8.674;2023-12-29T00:47:53;13.20;99.90
18712;DHT22;9485;49.386;8.674;2023-12-29T00:53:13;13.20;99.90
18712;DHT22;9485;49.386;8.674;2023-12-29T00:58:35;13.30;99.90
18712;DHT22;9485;49.386;8.674;2023-12-29T01:03:55;13.30;99.90
18712;DHT22;9485;49.386;8.674;2023-12-29T01:09:16;13.30;99.90
18712;DHT22;9485;49.386;8.674;2023-12-29T01:14:38;13.40;99.90
18712;DHT22;9485;49.386;8.674;2023-12-29T01:19:58;13.40;99.90
18712;DHT22;9485;49.386;8.674;2023-12-29T01:25:19;13.40;99.90
18712;DHT22;9485;49.386;8.674;2023-12-29T01:30:41;13.50;99.90
18712;DHT22;9485;49.386;8.674;2023-12-29T01:36:02;13.50;99.90
18712;DHT22;9485;49.386;8.674;2023-12-29T01:41:23;13.50;99.90
18712;DHT22;9485;49.386;8.674;2023-12-29T01:46:46;13.50;99.90
18712;DHT22;9485;49.386;8.674;2023-12-29T01:52:08;13.50;99.90
18712;DHT22;9485;49.386;8.674;2023-12-29T01:57:29;13.50;99.90
18712;DHT22;9485;49.386;8.674;2023-12-29T02:02:56;13.40;99.90
18712;DHT22;9485;49.386;8.674;2023-12-29T02:08:17;13.40;99.90
18712;DHT22;9485;49.386;8.674;2023-12-29T02:13:38;13.40;99.90
18712;DHT22;9485;49.386;8.674;2023-12-29T02:19:00;13.30;99.90
18712;DHT22;9485;49.386;8.674;2023-12-29T02:24:29;13.20;99.90
18712;DHT22;9485;49.386;8.674;2023-12-29T02:30:02;13.20;99.90
18712;DHT22;9485;49.386;8.674;2023-12-29T02:35:32;13.10;99.90
18712;DHT22;9485;49.386;8.674;2023-12-29T02:40:55;13.00;99.90
18712;DHT22;9485;49.386;8.674;2023-12-29T02:46:18;13.00;99.90
18712;DHT22;9485;49.386;8.674;2023-12-29T02:51:38;12.90;99.90
18712;DHT22;9485;49.386;8.674;2023-12-29T02:56:59;12.80;99.90
18712;DHT22;9485;49.386;8.674;2023-12-29T03:02:21;12.80;99.90
18712;DHT22;9485;49.386;8.674;2023-12-29T03:07:42;12.70;99.90
18712;DHT22;9485;49.386;8.674;2023-12-29T03:13:02;12.60;99.90
18712;DHT22;9485;49.386;8.674;2023-12-29T03:18:25;12.60;99.90
18712;DHT22;9485;49.386;8.674;2023-12-29T03:23:45;12.50;99.90
18712;DHT22;9485;49.386;8.674;2023-12-29T03:29:05;12.50;99.90
18712;DHT22;9485;49.386;8.674;2023-12-29T03:34:28;12.50;99.90
18712;DHT22;9485;49.386;8.674;2023-12-29T03:39:48;12.50;99.90
18712;DHT22;9485;49.386;8.674;2023-12-29T03:45:09;12.50;99.90
18712;DHT22;9485;49.386;8.674;2023-12-29T03:50:31;12.40;99.90
18712;DHT22;9485;49.386;8.674;2023-12-29T03:55:52;12.50;99.90
18712;DHT22;9485;49.386;8.674;2023-12-29T04:01:13;12.40;99.90
18712;DHT22;9485;49.386;8.674;2023-12-29T04:06:36;12.50;99.90
18712;DHT22;9485;49.386;8.674;2023-12-29T04:11:56;12.40;99.90
18712;DHT22;9485;49.386;8.674;2023-12-29T04:17:17;12.50;99.90
18712;DHT22;9485;49.386;8.674;2023-12-29T04:22:39;12.50;99.90
18712;DHT22;9485;49.386;8.674;2023-12-29T04:28:00;12.50;99.90
18712;DHT22;9485;49.386;8.674;2023-12-29T04:33:20;12.50;99.90
18712;DHT22;9485;49.386;8.674;2023-12-29T04:38:44;12.50;99.90
18712;DHT22;9485;49.386;8.674;2023-12-29T04:44:04;12.60;99.90
18712;DHT22;9485;49.386;8.674;2023-12-29T04:49:25;12.60;99.90
18712;DHT22;9485;49.386;8.674;2023-12-29T04:54:47;12.60;99.90
18712;DHT22;9485;49.386;8.674;2023-12-29T05:00:08;12.70;99.90
18712;DHT22;9485;49.386;8.674;2023-12-29T05:05:29;12.70;99.90
18712;DHT22;9485;49.386;8.674;2023-12-29T05:10:51;12.80;99.90
18712;DHT22;9485;49.386;8.674;2023-12-29T05:16:11;12.80;99.90
18712;DHT22;9485;49.386;8.674;2023-12-29T05:21:33;12.70;99.90
18712;DHT22;9485;49.386;8.674;2023-12-29T05:26:55;12.70;99.90
18712;DHT22;9485;49.386;8.674;2023-12-29T05:32:16;12.60;99.90
18712;DHT22;9485;49.386;8.674;2023-12-29T05:37:36;12.60;99.90
18712;DHT22;9485;49.386;8.674;2023-12-29T05:42:58;12.50;99.90
18712;DHT22;9485;49.386;8.674;2023-12-29T05:48:19;12.50;99.90
18712;DHT22;9485;49.386;8.674;2023-12-29T05:53:40;12.50;99.90
18712;DHT22;9485;49.386;8.674;2023-12-29T05:59:02;12.40;99.90
18712;DHT22;9485;49.386;8.674;2023-12-29T06:04:23;12.40;99.90
18712;DHT22;9485;49.386;8.674;2023-12-29T06:09:43;12.40;99.90
18712;DHT22;9485;49.386;8.674;2023-12-29T06:15:06;12.50;99.90
18712;DHT22;9485;49.386;8.674;2023-12-29T06:20:27;12.50;99.90
18712;DHT22;9485;49.386;8.674;2023-12-29T06:25:49;12.50;99.90
18712;DHT22;9485;49.386;8.674;2023-12-29T06:31:11;12.50;99.90
18712;DHT22;9485;49.386;8.674;2023-12-29T06:36:32;12.50;99.90
18712;DHT22;9485;49.386;8.674;2023-12-29T06:41:52;12.50;99.90
18712;DHT22;9485;49.386;8.674;2023-12-29T06:47:14;12.50;99.90
18712;DHT22;9485;49.386;8.674;2023-12-29T06:52:34;12.50;99.90
18712;DHT22;9485;49.386;8.674;2023-12-29T06:57:55;12.50;99.90
18712;DHT22;9485;49.386;8.674;2023-12-29T07:03:16;12.50;99.90
18712;DHT22;9485;49.386;8.674;2023-12-29T07:08:37;12.50;99.90
18712;DHT22;9485;49.386;8.674;2023-12-29T07:13:58;12.50;99.90
18712;DHT22;9485;49.386;8.674;2023-12-29T07:19:19;12.60;99.90
18712;DHT22;9485;49.386;8.674;2023-12-29T07:24:40;12.60;99.90
18712;DHT22;9485;49.386;8.674;2023-12-29T07:30:01;12.60;99.90
18712;DHT22;9485;49.386;8.674;2023-12-29T07:35:23;12.60;99.90
18712;DHT22;9485;49.386;8.674;2023-12-29T07:40:44;12.60;99.90
18712;DHT22;9485;49.386;8.674;2023-12-29T07:46:04;12.60;99.90
18712;DHT22;9485;49.386;8.674;2023-12-29T07:51:26;12.60;99.90
18712;DHT22;9485;49.386;8.674;2023-12-29T07:56:47;12.60;99.90
18712;DHT22;9485;49.386;8.674;2023-12-29T08:02:08;12.60;99.90
18712;DHT22;9485;49.386;8.674;2023-12-29T08:07:30;12.70;99.90
18712;DHT22;9485;49.386;8.674;2023-12-29T08:12:50;12.70;99.90
18712;DHT22;9485;49.386;8.674;2023-12-29T08:18:12;12.80;99.90
18712;DHT22;9485;49.386;8.674;2023-12-29T08:23:34;12.90;99.90
18712;DHT22;9485;49.386;8.674;2023-12-29T08:28:55;12.90;99.90
18712;DHT22;9485;49.386;8.674;2023-12-29T08:34:15;13.00;99.90
18712;DHT22;9485;49.386;8.674;2023-12-29T08:39:37;13.10;99.90
18712;DHT22;9485;49.386;8.674;2023-12-29T08:44:58;13.10;99.90
18712;DHT22;9485;49.386;8.674;2023-12-29T08:50:20;13.20;99.90
18712;DHT22;9485;49.386;8.674;2023-12-29T08:55:42;13.30;99.90
18712;DHT22;9485;49.386;8.674;2023-12-29T09:01:03;13.40;99.90
18712;DHT22;9485;49.386;8.674;2023-12-29T09:06:23;13.40;99.90
18712;DHT22;9485;49.386;8.674;2023-12-29T09:11:45;13.50;99.90
18712;DHT22;9485;49.386;8.674;2023-12-29T09:17:07;13.60;99.90
18712;DHT22;9485;49.386;8.674;2023-12-29T09:22:27;13.70;99.90
18712;DHT22;9485;49.386;8.674;2023-12-29T09:27:49;13.80;99.90
18712;DHT22;9485;49.386;8.674;2023-12-29T09:33:11;13.90;99.90
18712;DHT22;9485;49.386;8.674;2023-12-29T09:38:31;13.90;99.90
18712;DHT22;9485;49.386;8.674;2023-12-29T09:43:55;14.00;99.90
18712;DHT22;9485;49.386;8.674;2023-12-29T09:49:19;14.00;99.90
18712;DHT22;9485;49.386;8.674;2023-12-29T09:54:40;14.10;99.90
18712;DHT22;9485;49.386;8.674;2023-12-29T10:00:04;14.20;99.90
18712;DHT22;9485;49.386;8.674;2023-12-29T10:05:29;14.30;99.90
18712;DHT22;9485;49.386;8.674;2023-12-29T10:10:50;14.40;99.90
18712;DHT22;9485;49.386;8.674;2023-12-29T10:16:24;14.60;99.90
18712;DHT22;9485;49.386;8.674;2023-12-29T10:21:54;14.70;99.90
18712;DHT22;9485;49.386;8.674;2023-12-29T10:27:22;14.80;99.90
18712;DHT22;9485;49.386;8.674;2023-12-29T10:32:49;14.90;99.90
18712;DHT22;9485;49.386;8.674;2023-12-29T10:38:11;15.00;99.90
18712;DHT22;9485;49.386;8.674;2023-12-29T10:43:32;15.00;99.90
18712;DHT22;9485;49.386;8.674;2023-12-29T10:48:59;15.00;99.90
18712;DHT22;9485;49.386;8.674;2023-12-29T10:54:27;15.10;99.90
18712;DHT22;9485;49.386;8.674;2023-12-29T10:59:54;15.10;99.90
18712;DHT22;9485;49.386;8.674;2023-12-29T11:05:16;15.20;99.90
18712;DHT22;9485;49.386;8.674;2023-12-29T11:10:47;15.30;99.90
18712;DHT22;9485;49.386;8.674;2023-12-29T11:16:09;15.30;99.90
18712;DHT22;9485;49.386;8.674;2023-12-29T11:21:31;15.40;99.90
18712;DHT22;9485;49.386;8.674;2023-12-29T11:26:55;15.50;99.90
18712;DHT22;9485;49.386;8.674;2023-12-29T11:32:20;15.50;99.90
18712;DHT22;9485;49.386;8.674;2023-12-29T11:38:07;15.60;99.90
18712;DHT22;9485;49.386;8.674;2023-12-29T11:43:39;15.80;99.90
18712;DHT22;9485;49.386;8.674;2023-12-29T11:49:00;15.90;99.90
18712;DHT22;9485;49.386;8.674;2023-12-29T11:54:26;15.90;99.90
18712;DHT22;9485;49.386;8.674;2023-12-29T11:59:47;15.90;99.90
18712;DHT22;9485;49.386;8.674;2023-12-29T12:05:09;16.00;99.90
18712;DHT22;9485;49.386;8.674;2023-12-29T12:10:35;16.10;99.90
18712;DHT22;9485;49.386;8.674;2023-12-29T12:15:59;16.10;99.90
18712;DHT22;9485;49.386;8.674;2023-12-29T12:21:19;16.20;99.90
18712;DHT22;9485;49.386;8.674;2023-12-29T12:26:42;16.20;99.90
18712;DHT22;9485;49.386;8.674;2023-12-29T12:32:03;16.30;99.90
18712;DHT22;9485;49.386;8.674;2023-12-29T12:37:27;16.40;99.90
18712;DHT22;9485;49.386;8.674;2023-12-29T12:42:50;16.50;99.90
18712;DHT22;9485;49.386;8.674;2023-12-29T12:48:14;16.60;99.90
18712;DHT22;9485;49.386;8.674;2023-12-29T12:53:43;16.60;99.90
18712;DHT22;9485;49.386;8.674;2023-12-29T12:59:05;16.60;99.90
18712;DHT22;9485;49.386;8.674;2023-12-29T13:04:26;16.60;99.90
18712;DHT22;9485;49.386;8.674;2023-12-29T13:09:47;16.50;99.90
18712;DHT22;9485;49.386;8.674;2023-12-29T13:15:11;16.40;99.90
18712;DHT22;9485;49.386;8.674;2023-12-29T13:20:43;16.40;99.60
18712;DHT22;9485;49.386;8.674;2023-12-29T13:26:06;16.30;98.70
18712;DHT22;9485;49.386;8.674;2023-12-29T13:31:30;16.10;99.20
18712;DHT22;9485;49.386;8.674;2023-12-29T13:36:59;16.00;99.10
18712;DHT22;9485;49.386;8.674;2023-12-29T13:42:24;15.90;99.00
18712;DHT22;9485;49.386;8.674;2023-12-29T13:47:49;15.80;99.40
18712;DHT22;9485;49.386;8.674;2023-12-29T13:53:16;15.70;99.50
18712;DHT22;9485;49.386;8.674;2023-12-29T13:58:38;15.70;99.40
18712;DHT22;9485;49.386;8.674;2023-12-29T14:04:03;15.70;99.90
18712;DHT22;9485;49.386;8.674;2023-12-29T14:09:27;15.70;99.80
18712;DHT22;9485;49.386;8.674;2023-12-29T14:14:49;15.70;99.90
18712;DHT22;9485;49.386;8.674;2023-12-29T14:20:11;15.70;99.90
18712;DHT22;9485;49.386;8.674;2023-12-29T14:25:32;15.60;99.80
18712;DHT22;9485;49.386;8.674;2023-12-29T14:31:01;15.60;99.90
18712;DHT22;9485;49.386;8.674;2023-12-29T14:36:23;15.60;99.30
18712;DHT22;9485;49.386;8.674;2023-12-29T14:41:44;15.50;99.70
18712;DHT22;9485;49.386;8.674;2023-12-29T14:47:05;15.50;99.90
18712;DHT22;9485;49.386;8.674;2023-12-29T14:52:27;15.50;99.90
18712;DHT22;9485;49.386;8.674;2023-12-29T14:57:48;15.40;99.60
18712;DHT22;9485;49.386;8.674;2023-12-29T15:03:08;15.40;99.90
18712;DHT22;9485;49.386;8.674;2023-12-29T15:08:30;15.30;99.90
18712;DHT22;9485;49.386;8.674;2023-12-29T15:13:53;15.30;99.90
18712;DHT22;9485;49.386;8.674;2023-12-29T15:19:14;15.30;99.90
18712;DHT22;9485;49.386;8.674;2023-12-29T15:24:36;15.30;99.90
18712;DHT22;9485;49.386;8.674;2023-12-29T15:29:57;15.30;99.90
18712;DHT22;9485;49.386;8.674;2023-12-29T15:35:17;15.20;99.90
18712;DHT22;9485;49.386;8.674;2023-12-29T15:40:39;15.20;99.90
18712;DHT22;9485;49.386;8.674;2023-12-29T15:46:00;15.20;99.70
18712;DHT22;9485;49.386;8.674;2023-12-29T15:51:20;15.20;99.80
18712;DHT22;9485;49.386;8.674;2023-12-29T15:56:42;15.10;99.80
18712;DHT22;9485;49.386;8.674;2023-12-29T16:02:03;15.00;99.50
18712;DHT22;9485;49.386;8.674;2023-12-29T16:07:24;15.00;99.70
18712;DHT22;9485;49.386;8.674;2023-12-29T16:12:45;14.90;99.80
18712;DHT22;9485;49.386;8.674;2023-12-29T16:18:06;14.90;99.70
18712;DHT22;9485;49.386;8.674;2023-12-29T16:23:27;14.90;99.90
18712;DHT22;9485;49.386;8.674;2023-12-29T16:28:49;14.90;99.90
18712;DHT22;9485;49.386;8.674;2023-12-29T16:34:09;14.90;99.70
18712;DHT22;9485;49.386;8.674;2023-12-29T16:39:30;14.80;99.90
18712;DHT22;9485;49.386;8.674;2023-12-29T16:44:51;14.80;99.90
18712;DHT22;9485;49.386;8.674;2023-12-29T16:50:12;14.90;99.80
18712;DHT22;9485;49.386;8.674;2023-12-29T16:55:32;14.80;99.90
18712;DHT22;9485;49.386;8.674;2023-12-29T17:00:54;14.90;99.90
18712;DHT22;9485;49.386;8.674;2023-12-29T17:06:15;14.90;99.60
18712;DHT22;9485;49.386;8.674;2023-12-29T17:11:39;14.90;99.70
18712;DHT22;9485;49.386;8.674;2023-12-29T17:17:03;14.90;99.20
18712;DHT22;9485;49.386;8.674;2023-12-29T17:22:23;14.90;99.80
18712;DHT22;9485;49.386;8.674;2023-12-29T17:27:44;14.90;99.70
18712;DHT22;9485;49.386;8.674;2023-12-29T17:33:08;14.90;99.60
18712;DHT22;9485;49.386;8.674;2023-12-29T17:38:28;14.90;99.40
18712;DHT22;9485;49.386;8.674;2023-12-29T17:43:49;14.90;99.80
18712;DHT22;9485;49.386;8.674;2023-12-29T17:49:10;14.90;99.80
18712;DHT22;9485;49.386;8.674;2023-12-29T17:54:32;14.90;99.60
18712;DHT22;9485;49.386;8.674;2023-12-29T17:59:52;14.90;99.80
18712;DHT22;9485;49.386;8.674;2023-12-29T18:05:14;14.90;99.80
18712;DHT22;9485;49.386;8.674;2023-12-29T18:10:35;14.90;99.50
18712;DHT22;9485;49.386;8.674;2023-12-29T18:15:55;15.00;99.80
18712;DHT22;9485;49.386;8.674;2023-12-29T18:21:18;15.00;99.60
18712;DHT22;9485;49.386;8.674;2023-12-29T18:26:40;15.00;99.10
18712;DHT22;9485;49.386;8.674;2023-12-29T18:32:01;15.00;99.10
18712;DHT22;9485;49.386;8.674;2023-12-29T18:37:23;15.00;99.50
18712;DHT22;9485;49.386;8.674;2023-12-29T18:42:44;15.00;99.00
18712;DHT22;9485;49.386;8.674;2023-12-29T18:48:05;15.00;99.10
18712;DHT22;9485;49.386;8.674;2023-12-29T18:53:28;15.00;99.10
18712;DHT22;9485;49.386;8.674;2023-12-29T18:58:49;15.00;98.70
18712;DHT22;9485;49.386;8.674;2023-12-29T19:04:09;15.00;99.10
18712;DHT22;9485;49.386;8.674;2023-12-29T19:09:31;15.00;99.00
18712;DHT22;9485;49.386;8.674;2023-12-29T19:14:52;15.00;98.60
18712;DHT22;9485;49.386;8.674;2023-12-29T19:20:13;15.00;98.30
18712;DHT22;9485;49.386;8.674;2023-12-29T19:25:35;15.00;98.80
18712;DHT22;9485;49.386;8.674;2023-12-29T19:30:56;15.00;98.40
18712;DHT22;9485;49.386;8.674;2023-12-29T19:36:18;14.90;98.70
18712;DHT22;9485;49.386;8.674;2023-12-29T19:41:40;14.90;98.10
18712;DHT22;9485;49.386;8.674;2023-12-29T19:47:01;14.90;98.10
18712;DHT22;9485;49.386;8.674;2023-12-29T19:52:21;14.80;98.50
18712;DHT22;9485;49.386;8.674;2023-12-29T19:57:45;14.80;98.50
18712;DHT22;9485;49.386;8.674;2023-12-29T20:03:06;14.80;98.20
18712;DHT22;9485;49.386;8.674;2023-12-29T20:08:26;14.80;98.70
18712;DHT22;9485;49.386;8.674;2023-12-29T20:13:48;14.80;98.70
18712;DHT22;9485;49.386;8.674;2023-12-29T20:19:08;14.80;98.40
18712;DHT22;9485;49.386;8.674;2023-12-29T20:24:29;14.80;98.50
18712;DHT22;9485;49.386;8.674;2023-12-29T20:29:51;14.80;98.50
18712;DHT22;9485;49.386;8.674;2023-12-29T20:35:11;14.80;98.20
18712;DHT22;9485;49.386;8.674;2023-12-29T20:40:32;14.80;98.50
18712;DHT22;9485;49.386;8.674;2023-12-29T20:45:54;14.80;98.50
18712;DHT22;9485;49.386;8.674;2023-12-29T20:51:15;14.80;98.20
18712;DHT22;9485;49.386;8.674;2023-12-29T20:56:38;14.80;98.30
18712;DHT22;9485;49.386;8.674;2023-12-29T21:02:00;14.70;98.20
18712;DHT22;9485;49.386;8.674;2023-12-29T21:07:23;14.70;97.90
18712;DHT22;9485;49.386;8.674;2023-12-29T21:12:44;14.70;98.30
18712;DHT22;9485;49.386;8.674;2023-12-29T21:18:06;14.70;98.30
18712;DHT22;9485;49.386;8.674;2023-12-29T21:23:27;14.70;98.10
18712;DHT22;9485;49.386;8.674;2023-12-29T21:28:48;14.60;98.40
18712;DHT22;9485;49.386;8.674;2023-12-29T21:34:09;14.70;98.40
18712;DHT22;9485;49.386;8.674;2023-12-29T21:39:30;14.70;98.20
18712;DHT22;9485;49.386;8.674;2023-12-29T21:44:50;14.60;98.50
18712;DHT22;9485;49.386;8.674;2023-12-29T21:50:13;14.70;98.50
18712;DHT22;9485;49.386;8.674;2023-12-29T21:55:35;14.70;98.30
18712;DHT22;9485;49.386;8.674;2023-12-29T22:01:28;14.70;98.60
18712;DHT22;9485;49.386;8.674;2023-12-29T22:06:51;14.70;97.20
18712;DHT22;9485;49.386;8.674;2023-12-29T22:12:12;14.70;98.60
18712;DHT22;9485;49.386;8.674;2023-12-29T22:17:34;14.80;98.70
18712;DHT22;9485;49.386;8.674;2023-12-29T22:22:54;14.80;98.30
18712;DHT22;9485;49.386;8.674;2023-12-29T22:28:15;14.80;98.20
18712;DHT22;9485;49.386;8.674;2023-12-29T22:33:41;14.80;97.70
18712;DHT22;9485;49.386;8.674;2023-12-29T22:39:02;14.60;97.20
18712;DHT22;9485;49.386;8.674;2023-12-29T22:44:23;14.50;97.00
18712;DHT22;9485;49.386;8.674;2023-12-29T22:49:45;14.30;96.80
18712;DHT22;9485;49.386;8.674;2023-12-29T22:55:06;14.10;96.70
18712;DHT22;9485;49.386;8.674;2023-12-29T23:00:27;13.90;97.00
18712;DHT22;9485;49.386;8.674;2023-12-29T23:05:52;13.70;97.50
18712;DHT22;9485;49.386;8.674;2023-12-29T23:11:12;13.60;98.10
18712;DHT22;9485;49.386;8.674;2023-12-29T23:16:33;13.50;98.60
18712;DHT22;9485;49.386;8.674;2023-12-29T23:21:57;13.50;99.00
18712;DHT22;9485;49.386;8.674;2023-12-29T23:27:17;13.50;99.20
18712;DHT22;9485;49.386;8.674;2023-12-29T23:32:38;13.60;99.70
18712;DHT22;9485;49.386;8.674;2023-12-29T23:38:00;13.60;99.60
18712;DHT22;9485;49.386;8.674;2023-12-29T23:43:21;13.70;99.50
18712;DHT22;9485;49.386;8.674;2023-12-29T23:48:42;13.70;99.70
18712;DHT22;9485;49.386;8.674;2023-12-29T23:54:04;13.60;99.70
18712;DHT22;9485;49.386;8.674;2023-12-29T23:59:24;13.60;99.60
